createdAt,value
2022-11-16T11:27:37.204Z,5.62
2022-11-16T11:27:48.169Z,0.00
2022-11-16T11:27:58.150Z,5.62
2022-11-16T11:28:08.157Z,5.62
2022-11-16T11:28:18.134Z,5.62
2022-11-16T11:28:28.131Z,5.62
2022-11-16T11:28:38.127Z,5.62
2022-11-16T11:28:48.131Z,1243.12
2022-11-16T11:28:58.113Z,1372.50
2022-11-16T11:29:08.102Z,365.62
2022-11-16T11:29:28.084Z,0.00
2022-11-16T11:29:38.081Z,0.00
2022-11-16T11:29:48.095Z,0.00
2022-11-16T11:29:58.062Z,0.00
2022-11-16T11:30:08.076Z,0.00
2022-11-16T11:30:24.724Z,0.00
2022-11-16T11:30:39.434Z,0.00
2022-11-16T11:30:49.407Z,0.00
2022-11-16T11:30:59.407Z,0.00
2022-11-16T11:31:09.410Z,0.00
2022-11-16T11:31:19.383Z,0.00
2022-11-16T11:31:29.376Z,0.00
2022-11-16T11:31:39.361Z,0.00
2022-11-16T11:31:50.363Z,0.00
2022-11-16T11:31:59.347Z,0.00
2022-11-16T11:32:09.330Z,0.00
2022-11-16T11:32:23.945Z,0.00
2022-11-16T11:32:29.311Z,0.00
2022-11-16T11:32:39.298Z,0.00
2022-11-16T11:32:49.285Z,0.00
2022-11-16T11:32:59.282Z,0.00
2022-11-16T11:33:09.270Z,0.00
2022-11-16T11:33:19.253Z,0.00
2022-11-16T11:33:29.238Z,0.00
2022-11-16T11:33:39.230Z,0.00
2022-11-16T11:33:49.221Z,0.00
2022-11-16T11:33:59.202Z,0.00
2022-11-16T11:34:09.184Z,0.00
2022-11-16T11:34:19.186Z,0.00
2022-11-16T11:34:29.159Z,0.00
2022-11-16T11:34:39.146Z,0.00
2022-11-16T11:34:49.205Z,0.00
2022-11-16T11:34:59.139Z,0.00
2022-11-16T11:35:09.110Z,0.00
2022-11-16T11:35:19.139Z,0.00
2022-11-16T11:35:29.087Z,0.00
2022-11-16T11:35:39.064Z,0.00
2022-11-16T11:35:49.059Z,0.00
2022-11-16T11:35:59.047Z,0.00
2022-11-16T11:36:09.031Z,0.00
2022-11-16T11:36:19.021Z,0.00
2022-11-16T11:36:29.016Z,0.00
2022-11-16T11:36:39.007Z,0.00
2022-11-16T11:36:48.968Z,0.00
2022-11-16T11:36:58.952Z,0.00
2022-11-16T11:37:08.952Z,0.00
2022-11-16T11:37:18.923Z,0.00
2022-11-16T11:37:28.905Z,0.00
2022-11-16T11:37:38.889Z,0.00
2022-11-16T11:37:48.886Z,0.00
2022-11-16T11:38:02.147Z,0.00
2022-11-16T11:38:09.452Z,0.00
2022-11-16T11:38:18.826Z,0.00
2022-11-16T11:38:28.832Z,0.00
2022-11-16T11:38:38.797Z,0.00
2022-11-16T11:38:48.793Z,0.00
2022-11-16T11:38:58.828Z,0.00
2022-11-16T11:39:08.844Z,0.00
2022-11-16T11:39:18.779Z,0.00
2022-11-16T11:39:28.845Z,0.00
2022-11-16T11:39:38.781Z,5.62
2022-11-16T11:39:48.727Z,5.62
2022-11-16T11:39:58.716Z,5.62
2022-11-16T11:40:08.666Z,16.88
2022-11-16T11:40:18.650Z,16.88
2022-11-16T11:40:28.619Z,16.88
2022-11-16T11:40:38.595Z,16.88
2022-11-16T11:40:48.582Z,16.88
2022-11-16T11:40:58.573Z,16.88
2022-11-16T11:41:08.548Z,5.62
2022-11-16T11:41:18.524Z,5.62
2022-11-16T11:41:28.523Z,5.62
2022-11-16T11:41:38.487Z,5.62
2022-11-16T11:41:48.480Z,5.62
2022-11-16T11:42:13.213Z,5.62
2022-11-16T11:42:17.914Z,5.62
2022-11-16T11:42:27.894Z,5.62
2022-11-16T11:42:37.877Z,5.62
2022-11-16T11:42:47.866Z,5.62
2022-11-16T11:42:57.847Z,5.62
2022-11-16T11:43:07.820Z,5.62
2022-11-16T11:43:19.051Z,5.62
2022-11-16T11:43:27.779Z,5.62
2022-11-16T11:43:37.825Z,5.62
2022-11-16T11:43:47.745Z,0.00
2022-11-16T11:43:57.755Z,0.00
2022-11-16T11:44:17.689Z,0.00
2022-11-16T11:44:27.670Z,0.00
2022-11-16T11:44:37.652Z,0.00
2022-11-16T11:44:47.634Z,0.00
2022-11-16T11:44:57.628Z,0.00
2022-11-16T11:45:07.625Z,0.00
2022-11-16T11:45:17.574Z,0.00
2022-11-16T11:45:27.558Z,0.00
2022-11-16T11:45:37.537Z,0.00
2022-11-16T11:45:47.521Z,0.00
2022-11-16T11:45:57.501Z,0.00
2022-11-16T11:46:07.481Z,0.00
2022-11-16T11:46:17.463Z,0.00
2022-11-16T11:46:47.277Z,0.00
2022-11-16T11:48:01.423Z,0.00
2022-11-16T11:48:06.047Z,0.00
2022-11-16T11:48:10.740Z,0.00
2022-11-16T11:48:20.728Z,0.00
2022-11-16T11:48:30.701Z,0.00
2022-11-16T11:48:40.698Z,0.00
2022-11-16T11:48:50.670Z,0.00
2022-11-16T11:49:00.642Z,0.00
2022-11-16T11:49:10.647Z,0.00
2022-11-16T11:49:20.617Z,0.00
2022-11-16T11:49:33.924Z,0.00
2022-11-16T11:49:40.575Z,0.00
2022-11-16T11:49:53.217Z,0.00
2022-11-16T11:50:00.544Z,0.00
2022-11-16T11:50:10.507Z,0.00
2022-11-16T11:50:20.502Z,5.62
2022-11-16T11:50:30.491Z,0.00
2022-11-16T11:50:40.468Z,0.00
2022-11-16T11:50:50.432Z,5.62
2022-11-16T11:51:00.447Z,0.00
2022-11-16T11:51:10.500Z,0.00
2022-11-16T11:51:20.378Z,0.00
2022-11-16T11:51:30.349Z,0.00
2022-11-16T11:51:40.333Z,5.62
2022-11-16T11:51:50.319Z,5.62
2022-11-16T11:52:00.306Z,5.62
2022-11-16T11:52:10.311Z,0.00
2022-11-16T11:52:20.248Z,5.62
2022-11-16T11:52:45.369Z,5.62
2022-11-16T11:52:56.310Z,5.62
2022-11-16T11:53:06.300Z,5.62
2022-11-16T11:53:16.301Z,5.62
2022-11-16T11:53:26.294Z,5.62
2022-11-16T11:53:36.605Z,5.62
2022-11-16T11:53:46.281Z,5.62
2022-11-16T11:53:56.282Z,5.62
2022-11-16T11:56:03.845Z,5.62
2022-11-16T11:59:46.953Z,5.62
2022-11-16T12:01:25.702Z,5.62
2022-11-16T12:05:14.648Z,33.75
2022-11-16T12:05:25.649Z,33.75
2022-11-16T12:05:35.682Z,33.75
2022-11-16T12:05:45.707Z,33.75
2022-11-16T12:07:16.547Z,22.50
2022-11-16T12:07:27.478Z,33.75
2022-11-16T12:07:37.542Z,39.38
2022-11-16T12:09:56.657Z,39.38
